sensor_id;sensor_type;location;lat;lon;timestamp;temperature;humidity
11908;DHT22;6014;47.690;9.130;2022-12-18T00:00:06;-2.80;99.90
11908;DHT22;6014;47.690;9.130;2022-12-18T00:02:35;-2.80;99.90
11908;DHT22;6014;47.690;9.130;2022-12-18T00:05:06;-2.80;99.90
11908;DHT22;6014;47.690;9.130;2022-12-18T00:07:35;-2.90;99.90
11908;DHT22;6014;47.690;9.130;2022-12-18T00:10:05;-2.90;99.90
11908;DHT22;6014;47.690;9.130;2022-12-18T00:12:33;-2.90;99.90
11908;DHT22;6014;47.690;9.130;2022-12-18T00:15:01;-2.90;99.90
11908;DHT22;6014;47.690;9.130;2022-12-18T00:17:29;-3.00;99.90
11908;DHT22;6014;47.690;9.130;2022-12-18T00:19:57;-3.00;99.90
11908;DHT22;6014;47.690;9.130;2022-12-18T00:22:27;-2.90;99.90
11908;DHT22;6014;47.690;9.130;2022-12-18T00:24:55;-3.10;99.90
11908;DHT22;6014;47.690;9.130;2022-12-18T00:27:23;-3.00;99.90
11908;DHT22;6014;47.690;9.130;2022-12-18T00:29:51;-3.00;99.90
11908;DHT22;6014;47.690;9.130;2022-12-18T00:32:20;-3.10;99.90
11908;DHT22;6014;47.690;9.130;2022-12-18T00:34:48;-2.90;99.90
11908;DHT22;6014;47.690;9.130;2022-12-18T00:37:16;-3.10;99.90
11908;DHT22;6014;47.690;9.130;2022-12-18T00:39:49;-3.10;99.90
11908;DHT22;6014;47.690;9.130;2022-12-18T00:42:17;-3.10;99.90
11908;DHT22;6014;47.690;9.130;2022-12-18T00:45:03;-3.10;99.90
11908;DHT22;6014;47.690;9.130;2022-12-18T00:47:38;-3.10;99.90
11908;DHT22;6014;47.690;9.130;2022-12-18T00:50:08;-3.00;99.90
11908;DHT22;6014;47.690;9.130;2022-12-18T00:52:36;-3.10;99.90
11908;DHT22;6014;47.690;9.130;2022-12-18T00:55:06;-3.10;99.90
11908;DHT22;6014;47.690;9.130;2022-12-18T00:57:35;-3.00;99.90
11908;DHT22;6014;47.690;9.130;2022-12-18T01:00:04;-3.10;99.90
11908;DHT22;6014;47.690;9.130;2022-12-18T01:02:33;-3.00;99.90
11908;DHT22;6014;47.690;9.130;2022-12-18T01:05:02;-3.00;99.90
11908;DHT22;6014;47.690;9.130;2022-12-18T01:07:30;-3.00;99.90
11908;DHT22;6014;47.690;9.130;2022-12-18T01:09:58;-3.00;99.90
11908;DHT22;6014;47.690;9.130;2022-12-18T01:12:27;-3.00;99.90
11908;DHT22;6014;47.690;9.130;2022-12-18T01:14:56;-3.00;99.90
11908;DHT22;6014;47.690;9.130;2022-12-18T01:17:24;-2.90;99.90
11908;DHT22;6014;47.690;9.130;2022-12-18T01:19:53;-2.90;99.90
11908;DHT22;6014;47.690;9.130;2022-12-18T01:22:21;-2.90;99.90
11908;DHT22;6014;47.690;9.130;2022-12-18T01:24:49;-2.90;99.90
11908;DHT22;6014;47.690;9.130;2022-12-18T01:27:17;-2.90;99.90
11908;DHT22;6014;47.690;9.130;2022-12-18T01:29:48;-2.90;99.90
11908;DHT22;6014;47.690;9.130;2022-12-18T01:32:17;-3.00;99.90
11908;DHT22;6014;47.690;9.130;2022-12-18T01:34:45;-2.90;99.90
11908;DHT22;6014;47.690;9.130;2022-12-18T01:37:14;-2.90;99.90
11908;DHT22;6014;47.690;9.130;2022-12-18T01:39:42;-3.00;99.90
11908;DHT22;6014;47.690;9.130;2022-12-18T01:42:12;-3.00;99.90
11908;DHT22;6014;47.690;9.130;2022-12-18T01:45:04;-3.00;99.90
11908;DHT22;6014;47.690;9.130;2022-12-18T01:47:39;-2.90;99.90
11908;DHT22;6014;47.690;9.130;2022-12-18T01:50:11;-3.00;99.90
11908;DHT22;6014;47.690;9.130;2022-12-18T01:52:41;-2.90;99.90
11908;DHT22;6014;47.690;9.130;2022-12-18T01:55:10;-2.90;99.90
11908;DHT22;6014;47.690;9.130;2022-12-18T01:57:41;-2.90;99.90
11908;DHT22;6014;47.690;9.130;2022-12-18T02:00:14;-2.90;99.90
11908;DHT22;6014;47.690;9.130;2022-12-18T02:02:43;-2.80;99.90
11908;DHT22;6014;47.690;9.130;2022-12-18T02:05:14;-2.80;99.90
11908;DHT22;6014;47.690;9.130;2022-12-18T02:07:53;-2.80;99.90
11908;DHT22;6014;47.690;9.130;2022-12-18T02:10:29;-2.80;99.90
11908;DHT22;6014;47.690;9.130;2022-12-18T02:13:04;-2.80;99.90
11908;DHT22;6014;47.690;9.130;2022-12-18T02:15:43;-2.80;99.90
11908;DHT22;6014;47.690;9.130;2022-12-18T02:18:20;-2.90;99.90
11908;DHT22;6014;47.690;9.130;2022-12-18T02:20:54;-2.80;99.90
11908;DHT22;6014;47.690;9.130;2022-12-18T02:23:44;-2.80;99.90
11908;DHT22;6014;47.690;9.130;2022-12-18T02:26:19;-2.80;99.90
11908;DHT22;6014;47.690;9.130;2022-12-18T02:28:52;-2.60;99.90
11908;DHT22;6014;47.690;9.130;2022-12-18T02:31:23;-2.80;99.90
11908;DHT22;6014;47.690;9.130;2022-12-18T02:33:55;-2.70;99.90
11908;DHT22;6014;47.690;9.130;2022-12-18T02:36:25;-2.70;99.90
11908;DHT22;6014;47.690;9.130;2022-12-18T02:38:56;-2.60;99.90
11908;DHT22;6014;47.690;9.130;2022-12-18T02:41:26;-2.60;99.90
11908;DHT22;6014;47.690;9.130;2022-12-18T02:43:56;-2.60;99.90
11908;DHT22;6014;47.690;9.130;2022-12-18T02:46:32;-2.70;99.90
11908;DHT22;6014;47.690;9.130;2022-12-18T02:49:12;-2.60;99.90
11908;DHT22;6014;47.690;9.130;2022-12-18T02:51:51;-2.60;99.90
11908;DHT22;6014;47.690;9.130;2022-12-18T02:54:29;-2.80;99.90
11908;DHT22;6014;47.690;9.130;2022-12-18T02:57:11;-2.80;99.90
11908;DHT22;6014;47.690;9.130;2022-12-18T02:59:49;-2.80;99.90
11908;DHT22;6014;47.690;9.130;2022-12-18T03:02:22;-2.70;99.90
11908;DHT22;6014;47.690;9.130;2022-12-18T03:04:56;-2.60;99.90
11908;DHT22;6014;47.690;9.130;2022-12-18T03:07:33;-2.50;99.90
11908;DHT22;6014;47.690;9.130;2022-12-18T03:10:02;-2.60;99.90
11908;DHT22;6014;47.690;9.130;2022-12-18T03:12:35;-2.70;99.90
11908;DHT22;6014;47.690;9.130;2022-12-18T03:15:10;-2.70;99.90
11908;DHT22;6014;47.690;9.130;2022-12-18T03:17:46;-2.70;99.90
11908;DHT22;6014;47.690;9.130;2022-12-18T03:20:19;-2.70;99.90
11908;DHT22;6014;47.690;9.130;2022-12-18T03:22:53;-2.70;99.90
11908;DHT22;6014;47.690;9.130;2022-12-18T03:25:22;-2.60;99.90
11908;DHT22;6014;47.690;9.130;2022-12-18T03:27:56;-2.60;99.90
11908;DHT22;6014;47.690;9.130;2022-12-18T03:30:29;-2.60;99.90
11908;DHT22;6014;47.690;9.130;2022-12-18T03:33:07;-2.60;99.90
11908;DHT22;6014;47.690;9.130;2022-12-18T03:35:41;-2.60;99.90
11908;DHT22;6014;47.690;9.130;2022-12-18T03:38:11;-2.60;99.90
11908;DHT22;6014;47.690;9.130;2022-12-18T03:40:48;-2.60;99.90
11908;DHT22;6014;47.690;9.130;2022-12-18T03:43:28;-2.50;99.90
11908;DHT22;6014;47.690;9.130;2022-12-18T03:46:02;-2.60;99.90
11908;DHT22;6014;47.690;9.130;2022-12-18T03:48:35;-2.60;99.90
11908;DHT22;6014;47.690;9.130;2022-12-18T03:51:08;-2.60;99.90
11908;DHT22;6014;47.690;9.130;2022-12-18T03:53:42;-2.70;99.90
11908;DHT22;6014;47.690;9.130;2022-12-18T03:56:15;-2.60;99.90
11908;DHT22;6014;47.690;9.130;2022-12-18T03:58:46;-2.60;99.90
11908;DHT22;6014;47.690;9.130;2022-12-18T04:01:16;-2.80;99.90
11908;DHT22;6014;47.690;9.130;2022-12-18T04:03:46;-2.70;99.90
11908;DHT22;6014;47.690;9.130;2022-12-18T04:06:17;-2.60;99.90
11908;DHT22;6014;47.690;9.130;2022-12-18T04:08:47;-2.60;99.90
11908;DHT22;6014;47.690;9.130;2022-12-18T04:11:16;-2.60;99.90
11908;DHT22;6014;47.690;9.130;2022-12-18T04:13:45;-2.60;99.90
11908;DHT22;6014;47.690;9.130;2022-12-18T04:16:15;-2.60;99.90
11908;DHT22;6014;47.690;9.130;2022-12-18T04:18:43;-2.60;99.90
11908;DHT22;6014;47.690;9.130;2022-12-18T04:21:12;-2.60;99.90
11908;DHT22;6014;47.690;9.130;2022-12-18T04:23:40;-2.70;99.90
11908;DHT22;6014;47.690;9.130;2022-12-18T04:26:20;-2.60;99.90
11908;DHT22;6014;47.690;9.130;2022-12-18T04:28:51;-2.60;99.90
11908;DHT22;6014;47.690;9.130;2022-12-18T04:31:22;-2.60;99.90
11908;DHT22;6014;47.690;9.130;2022-12-18T04:33:51;-2.60;99.90
11908;DHT22;6014;47.690;9.130;2022-12-18T04:36:19;-2.60;99.90
11908;DHT22;6014;47.690;9.130;2022-12-18T04:38:47;-2.60;99.90
11908;DHT22;6014;47.690;9.130;2022-12-18T04:41:18;-2.60;99.90
11908;DHT22;6014;47.690;9.130;2022-12-18T04:43:46;-2.60;99.90
11908;DHT22;6014;47.690;9.130;2022-12-18T04:46:17;-2.50;99.90
11908;DHT22;6014;47.690;9.130;2022-12-18T04:48:47;-2.60;99.90
11908;DHT22;6014;47.690;9.130;2022-12-18T04:51:33;-2.60;99.90
11908;DHT22;6014;47.690;9.130;2022-12-18T04:54:01;-2.70;99.90
11908;DHT22;6014;47.690;9.130;2022-12-18T04:56:31;-2.70;99.90
11908;DHT22;6014;47.690;9.130;2022-12-18T04:58:59;-2.70;99.90
11908;DHT22;6014;47.690;9.130;2022-12-18T05:01:36;-2.60;99.90
11908;DHT22;6014;47.690;9.130;2022-12-18T05:04:08;-2.60;99.90
11908;DHT22;6014;47.690;9.130;2022-12-18T05:06:38;-2.60;99.90
11908;DHT22;6014;47.690;9.130;2022-12-18T05:09:06;-2.70;99.90
11908;DHT22;6014;47.690;9.130;2022-12-18T05:11:35;-2.60;99.90
11908;DHT22;6014;47.690;9.130;2022-12-18T05:14:04;-2.50;99.90
11908;DHT22;6014;47.690;9.130;2022-12-18T05:16:33;-2.70;99.90
11908;DHT22;6014;47.690;9.130;2022-12-18T05:19:02;-2.70;99.90
11908;DHT22;6014;47.690;9.130;2022-12-18T05:21:30;-2.60;99.90
11908;DHT22;6014;47.690;9.130;2022-12-18T05:24:01;-2.70;99.90
11908;DHT22;6014;47.690;9.130;2022-12-18T05:26:29;-2.80;99.90
11908;DHT22;6014;47.690;9.130;2022-12-18T05:28:58;-2.80;99.90
11908;DHT22;6014;47.690;9.130;2022-12-18T05:31:26;-2.60;99.90
11908;DHT22;6014;47.690;9.130;2022-12-18T05:33:55;-2.80;99.90
11908;DHT22;6014;47.690;9.130;2022-12-18T05:36:24;-2.70;99.90
11908;DHT22;6014;47.690;9.130;2022-12-18T05:38:52;-2.70;99.90
11908;DHT22;6014;47.690;9.130;2022-12-18T05:41:20;-2.70;99.90
11908;DHT22;6014;47.690;9.130;2022-12-18T05:43:48;-2.70;99.90
11908;DHT22;6014;47.690;9.130;2022-12-18T05:46:17;-2.70;99.90
11908;DHT22;6014;47.690;9.130;2022-12-18T05:48:46;-2.70;99.90
11908;DHT22;6014;47.690;9.130;2022-12-18T05:51:18;-2.70;99.90
11908;DHT22;6014;47.690;9.130;2022-12-18T05:53:46;-2.70;99.90
11908;DHT22;6014;47.690;9.130;2022-12-18T05:56:16;-2.80;99.90
11908;DHT22;6014;47.690;9.130;2022-12-18T05:58:45;-2.70;99.90
11908;DHT22;6014;47.690;9.130;2022-12-18T06:01:16;-2.60;99.90
11908;DHT22;6014;47.690;9.130;2022-12-18T06:03:45;-2.70;99.90
11908;DHT22;6014;47.690;9.130;2022-12-18T06:06:18;-2.70;99.90
11908;DHT22;6014;47.690;9.130;2022-12-18T06:08:46;-2.70;99.90
11908;DHT22;6014;47.690;9.130;2022-12-18T06:11:17;-2.80;99.90
11908;DHT22;6014;47.690;9.130;2022-12-18T06:13:49;-2.80;99.90
11908;DHT22;6014;47.690;9.130;2022-12-18T06:16:24;-2.50;99.90
11908;DHT22;6014;47.690;9.130;2022-12-18T06:18:52;-2.60;99.90
11908;DHT22;6014;47.690;9.130;2022-12-18T06:21:22;-2.70;99.90
11908;DHT22;6014;47.690;9.130;2022-12-18T06:23:50;-2.70;99.90
11908;DHT22;6014;47.690;9.130;2022-12-18T06:26:18;-2.60;99.90
11908;DHT22;6014;47.690;9.130;2022-12-18T06:28:53;-2.60;99.90
11908;DHT22;6014;47.690;9.130;2022-12-18T06:31:21;-2.60;99.90
11908;DHT22;6014;47.690;9.130;2022-12-18T06:33:50;-2.60;99.90
11908;DHT22;6014;47.690;9.130;2022-12-18T06:36:18;-2.50;99.90
11908;DHT22;6014;47.690;9.130;2022-12-18T06:38:48;-2.50;99.90
11908;DHT22;6014;47.690;9.130;2022-12-18T06:41:19;-2.40;99.90
11908;DHT22;6014;47.690;9.130;2022-12-18T06:43:47;-2.40;99.90
11908;DHT22;6014;47.690;9.130;2022-12-18T06:46:15;-2.40;99.90
11908;DHT22;6014;47.690;9.130;2022-12-18T06:48:47;-2.40;99.90
11908;DHT22;6014;47.690;9.130;2022-12-18T06:51:18;-2.40;99.90
11908;DHT22;6014;47.690;9.130;2022-12-18T06:53:48;-2.40;99.90
11908;DHT22;6014;47.690;9.130;2022-12-18T06:56:16;-2.40;99.90
11908;DHT22;6014;47.690;9.130;2022-12-18T06:58:45;-2.40;99.90
11908;DHT22;6014;47.690;9.130;2022-12-18T07:01:13;-2.50;99.90
11908;DHT22;6014;47.690;9.130;2022-12-18T07:03:42;-2.50;99.90
11908;DHT22;6014;47.690;9.130;2022-12-18T07:06:14;-2.50;99.90
11908;DHT22;6014;47.690;9.130;2022-12-18T07:08:43;-2.40;99.90
11908;DHT22;6014;47.690;9.130;2022-12-18T07:11:12;-2.50;99.90
11908;DHT22;6014;47.690;9.130;2022-12-18T07:13:41;-2.50;99.90
11908;DHT22;6014;47.690;9.130;2022-12-18T07:16:11;-2.40;99.90
11908;DHT22;6014;47.690;9.130;2022-12-18T07:18:49;-2.50;99.90
11908;DHT22;6014;47.690;9.130;2022-12-18T07:21:19;-2.50;99.90
11908;DHT22;6014;47.690;9.130;2022-12-18T07:23:47;-2.50;99.90
11908;DHT22;6014;47.690;9.130;2022-12-18T07:26:21;-2.50;99.90
11908;DHT22;6014;47.690;9.130;2022-12-18T07:28:49;-2.40;99.90
11908;DHT22;6014;47.690;9.130;2022-12-18T07:31:20;-2.50;99.90
11908;DHT22;6014;47.690;9.130;2022-12-18T07:33:50;-2.40;99.90
11908;DHT22;6014;47.690;9.130;2022-12-18T07:36:18;-2.30;99.90
11908;DHT22;6014;47.690;9.130;2022-12-18T07:38:47;-2.40;99.90
11908;DHT22;6014;47.690;9.130;2022-12-18T07:41:19;-2.40;99.90
11908;DHT22;6014;47.690;9.130;2022-12-18T07:43:48;-2.30;99.90
11908;DHT22;6014;47.690;9.130;2022-12-18T07:46:16;-2.30;99.90
11908;DHT22;6014;47.690;9.130;2022-12-18T07:48:45;-2.30;99.90
11908;DHT22;6014;47.690;9.130;2022-12-18T07:51:16;-2.30;99.90
11908;DHT22;6014;47.690;9.130;2022-12-18T07:53:44;-2.20;99.90
11908;DHT22;6014;47.690;9.130;2022-12-18T07:56:20;-2.10;99.90
11908;DHT22;6014;47.690;9.130;2022-12-18T07:58:54;-2.20;99.90
11908;DHT22;6014;47.690;9.130;2022-12-18T08:01:22;-2.10;99.90
11908;DHT22;6014;47.690;9.130;2022-12-18T08:03:51;-2.20;99.90
11908;DHT22;6014;47.690;9.130;2022-12-18T08:06:19;-2.20;99.90
11908;DHT22;6014;47.690;9.130;2022-12-18T08:08:51;-2.10;99.90
11908;DHT22;6014;47.690;9.130;2022-12-18T08:11:21;-2.00;99.90
11908;DHT22;6014;47.690;9.130;2022-12-18T08:13:50;-2.00;99.90
11908;DHT22;6014;47.690;9.130;2022-12-18T08:16:18;-2.10;99.90
11908;DHT22;6014;47.690;9.130;2022-12-18T08:18:47;-2.00;99.90
11908;DHT22;6014;47.690;9.130;2022-12-18T08:21:18;-2.10;99.90
11908;DHT22;6014;47.690;9.130;2022-12-18T08:23:48;-2.10;99.90
11908;DHT22;6014;47.690;9.130;2022-12-18T08:26:20;-2.10;99.90
11908;DHT22;6014;47.690;9.130;2022-12-18T08:28:51;-2.10;99.90
11908;DHT22;6014;47.690;9.130;2022-12-18T08:31:19;-2.00;99.90
11908;DHT22;6014;47.690;9.130;2022-12-18T08:33:49;-2.10;99.90
11908;DHT22;6014;47.690;9.130;2022-12-18T08:36:18;-2.10;99.90
11908;DHT22;6014;47.690;9.130;2022-12-18T08:38:47;-2.10;99.90
11908;DHT22;6014;47.690;9.130;2022-12-18T08:41:19;-2.10;99.90
11908;DHT22;6014;47.690;9.130;2022-12-18T08:43:48;-2.00;99.90
11908;DHT22;6014;47.690;9.130;2022-12-18T08:46:36;-2.00;99.90
11908;DHT22;6014;47.690;9.130;2022-12-18T08:49:06;-2.00;99.90
11908;DHT22;6014;47.690;9.130;2022-12-18T08:51:35;-2.10;99.90
11908;DHT22;6014;47.690;9.130;2022-12-18T08:54:05;-2.00;99.90
11908;DHT22;6014;47.690;9.130;2022-12-18T08:56:35;-2.00;99.90
11908;DHT22;6014;47.690;9.130;2022-12-18T08:59:04;-2.00;99.90
11908;DHT22;6014;47.690;9.130;2022-12-18T09:01:34;-2.00;99.90
11908;DHT22;6014;47.690;9.130;2022-12-18T09:04:04;-2.00;99.90
11908;DHT22;6014;47.690;9.130;2022-12-18T09:06:35;-2.00;99.90
11908;DHT22;6014;47.690;9.130;2022-12-18T09:09:05;-2.00;99.90
11908;DHT22;6014;47.690;9.130;2022-12-18T09:11:35;-1.90;99.90
11908;DHT22;6014;47.690;9.130;2022-12-18T09:14:03;-1.80;99.90
11908;DHT22;6014;47.690;9.130;2022-12-18T09:16:32;-1.70;99.90
11908;DHT22;6014;47.690;9.130;2022-12-18T09:19:04;-1.80;99.90
11908;DHT22;6014;47.690;9.130;2022-12-18T09:21:35;-1.80;99.90
11908;DHT22;6014;47.690;9.130;2022-12-18T09:24:04;-1.70;99.90
11908;DHT22;6014;47.690;9.130;2022-12-18T09:26:37;-1.60;99.90
11908;DHT22;6014;47.690;9.130;2022-12-18T09:29:06;-1.60;99.90
11908;DHT22;6014;47.690;9.130;2022-12-18T09:31:36;-1.60;99.90
11908;DHT22;6014;47.690;9.130;2022-12-18T09:34:06;-1.60;99.90
11908;DHT22;6014;47.690;9.130;2022-12-18T09:36:34;-1.40;99.90
11908;DHT22;6014;47.690;9.130;2022-12-18T09:39:02;-1.50;99.90
11908;DHT22;6014;47.690;9.130;2022-12-18T09:41:43;-1.30;99.90
11908;DHT22;6014;47.690;9.130;2022-12-18T09:44:22;-1.40;99.90
11908;DHT22;6014;47.690;9.130;2022-12-18T09:47:01;-1.50;99.90
11908;DHT22;6014;47.690;9.130;2022-12-18T09:49:33;-1.30;99.90
11908;DHT22;6014;47.690;9.130;2022-12-18T09:52:04;-1.20;99.90
11908;DHT22;6014;47.690;9.130;2022-12-18T09:54:36;-1.10;99.90
11908;DHT22;6014;47.690;9.130;2022-12-18T09:57:18;-1.10;99.90
11908;DHT22;6014;47.690;9.130;2022-12-18T09:59:51;-1.00;99.90
11908;DHT22;6014;47.690;9.130;2022-12-18T10:02:23;-1.00;99.90
11908;DHT22;6014;47.690;9.130;2022-12-18T10:05:04;-1.00;99.90
11908;DHT22;6014;47.690;9.130;2022-12-18T10:07:39;-1.10;99.90
11908;DHT22;6014;47.690;9.130;2022-12-18T10:10:21;-1.10;99.90
11908;DHT22;6014;47.690;9.130;2022-12-18T10:12:58;-1.10;99.90
11908;DHT22;6014;47.690;9.130;2022-12-18T10:15:36;-1.00;99.90
11908;DHT22;6014;47.690;9.130;2022-12-18T10:18:19;-1.10;99.90
11908;DHT22;6014;47.690;9.130;2022-12-18T10:20:53;-1.10;99.90
11908;DHT22;6014;47.690;9.130;2022-12-18T10:23:27;-1.20;99.90
11908;DHT22;6014;47.690;9.130;2022-12-18T10:26:02;-1.20;99.90
11908;DHT22;6014;47.690;9.130;2022-12-18T10:28:36;-1.20;99.90
11908;DHT22;6014;47.690;9.130;2022-12-18T10:31:06;-1.30;99.90
11908;DHT22;6014;47.690;9.130;2022-12-18T10:33:42;-1.30;99.90
11908;DHT22;6014;47.690;9.130;2022-12-18T10:36:10;-1.30;99.90
11908;DHT22;6014;47.690;9.130;2022-12-18T10:38:39;-1.40;99.90
11908;DHT22;6014;47.690;9.130;2022-12-18T10:41:25;-1.40;99.90
11908;DHT22;6014;47.690;9.130;2022-12-18T10:44:16;-1.50;99.90
11908;DHT22;6014;47.690;9.130;2022-12-18T10:46:47;-1.30;99.90
11908;DHT22;6014;47.690;9.130;2022-12-18T10:49:23;-1.20;99.90
11908;DHT22;6014;47.690;9.130;2022-12-18T10:52:05;-1.10;99.90
11908;DHT22;6014;47.690;9.130;2022-12-18T10:54:34;-1.10;99.90
11908;DHT22;6014;47.690;9.130;2022-12-18T10:57:27;-1.00;99.90
11908;DHT22;6014;47.690;9.130;2022-12-18T11:00:03;-1.00;99.90
11908;DHT22;6014;47.690;9.130;2022-12-18T11:02:44;-0.90;99.90
11908;DHT22;6014;47.690;9.130;2022-12-18T11:05:25;-1.00;99.90
11908;DHT22;6014;47.690;9.130;2022-12-18T11:07:54;-0.90;99.90
11908;DHT22;6014;47.690;9.130;2022-12-18T11:10:26;-0.80;99.90
11908;DHT22;6014;47.690;9.130;2022-12-18T11:13:10;-0.80;99.90
11908;DHT22;6014;47.690;9.130;2022-12-18T11:15:41;-0.90;99.90
11908;DHT22;6014;47.690;9.130;2022-12-18T11:18:17;-1.10;99.90
11908;DHT22;6014;47.690;9.130;2022-12-18T11:20:53;-1.10;99.90
11908;DHT22;6014;47.690;9.130;2022-12-18T11:23:26;-1.20;99.90
11908;DHT22;6014;47.690;9.130;2022-12-18T11:25:57;-1.20;99.90
11908;DHT22;6014;47.690;9.130;2022-12-18T11:28:29;-1.30;99.90
11908;DHT22;6014;47.690;9.130;2022-12-18T11:31:24;-1.10;99.90
11908;DHT22;6014;47.690;9.130;2022-12-18T11:34:02;-1.00;99.90
11908;DHT22;6014;47.690;9.130;2022-12-18T11:36:53;-1.10;99.90
11908;DHT22;6014;47.690;9.130;2022-12-18T11:39:30;-0.90;99.90
11908;DHT22;6014;47.690;9.130;2022-12-18T11:42:03;-0.80;99.90
11908;DHT22;6014;47.690;9.130;2022-12-18T11:44:43;-0.90;99.90
11908;DHT22;6014;47.690;9.130;2022-12-18T11:47:21;-0.90;99.90
11908;DHT22;6014;47.690;9.130;2022-12-18T11:49:55;-0.90;99.90
11908;DHT22;6014;47.690;9.130;2022-12-18T11:52:26;-0.80;99.90
11908;DHT22;6014;47.690;9.130;2022-12-18T11:54:59;-0.70;99.90
11908;DHT22;6014;47.690;9.130;2022-12-18T11:57:35;-0.80;99.90
11908;DHT22;6014;47.690;9.130;2022-12-18T12:00:13;-0.80;99.90
11908;DHT22;6014;47.690;9.130;2022-12-18T12:03:07;-0.90;99.90
11908;DHT22;6014;47.690;9.130;2022-12-18T12:05:51;-1.00;99.90
11908;DHT22;6014;47.690;9.130;2022-12-18T12:08:29;-1.00;99.90
11908;DHT22;6014;47.690;9.130;2022-12-18T12:11:10;-0.90;99.90
11908;DHT22;6014;47.690;9.130;2022-12-18T12:13:51;-1.00;99.90
11908;DHT22;6014;47.690;9.130;2022-12-18T12:16:25;-1.00;99.90
11908;DHT22;6014;47.690;9.130;2022-12-18T12:19:12;-1.00;99.90
11908;DHT22;6014;47.690;9.130;2022-12-18T12:21:49;-0.90;99.90
11908;DHT22;6014;47.690;9.130;2022-12-18T12:24:31;-1.00;99.90
11908;DHT22;6014;47.690;9.130;2022-12-18T12:27:07;-1.00;99.90
11908;DHT22;6014;47.690;9.130;2022-12-18T12:29:49;-1.00;99.90
11908;DHT22;6014;47.690;9.130;2022-12-18T12:32:28;-1.00;99.90
11908;DHT22;6014;47.690;9.130;2022-12-18T12:35:12;-1.00;99.90
11908;DHT22;6014;47.690;9.130;2022-12-18T12:37:52;-0.90;99.90
11908;DHT22;6014;47.690;9.130;2022-12-18T12:40:26;-0.90;99.90
11908;DHT22;6014;47.690;9.130;2022-12-18T12:43:32;-1.00;99.90
11908;DHT22;6014;47.690;9.130;2022-12-18T12:46:04;-1.00;99.90
11908;DHT22;6014;47.690;9.130;2022-12-18T12:48:55;-1.10;99.90
11908;DHT22;6014;47.690;9.130;2022-12-18T12:51:28;-1.00;99.90
11908;DHT22;6014;47.690;9.130;2022-12-18T12:53:57;-1.00;99.90
11908;DHT22;6014;47.690;9.130;2022-12-18T12:56:36;-0.90;99.90
11908;DHT22;6014;47.690;9.130;2022-12-18T12:59:13;-1.00;99.90
11908;DHT22;6014;47.690;9.130;2022-12-18T13:01:52;-0.90;99.90
11908;DHT22;6014;47.690;9.130;2022-12-18T13:04:29;-0.90;99.90
11908;DHT22;6014;47.690;9.130;2022-12-18T13:07:06;-0.80;99.90
11908;DHT22;6014;47.690;9.130;2022-12-18T13:10:19;-0.70;99.90
11908;DHT22;6014;47.690;9.130;2022-12-18T13:12:57;-0.80;99.90
11908;DHT22;6014;47.690;9.130;2022-12-18T13:15:38;-0.70;99.90
11908;DHT22;6014;47.690;9.130;2022-12-18T13:18:17;-0.70;99.90
11908;DHT22;6014;47.690;9.130;2022-12-18T13:20:50;-0.60;99.90
11908;DHT22;6014;47.690;9.130;2022-12-18T13:23:37;-0.70;99.90
11908;DHT22;6014;47.690;9.130;2022-12-18T13:26:29;-0.60;99.90
11908;DHT22;6014;47.690;9.130;2022-12-18T13:29:00;-0.60;99.90
11908;DHT22;6014;47.690;9.130;2022-12-18T13:34:37;-0.70;99.90
11908;DHT22;6014;47.690;9.130;2022-12-18T13:37:40;-0.80;99.90
11908;DHT22;6014;47.690;9.130;2022-12-18T13:43:31;-0.80;99.90
11908;DHT22;6014;47.690;9.130;2022-12-18T13:46:03;-0.90;99.90
11908;DHT22;6014;47.690;9.130;2022-12-18T13:48:34;-1.00;99.90
11908;DHT22;6014;47.690;9.130;2022-12-18T13:51:06;-0.80;99.90
11908;DHT22;6014;47.690;9.130;2022-12-18T13:53:43;-0.80;99.90
11908;DHT22;6014;47.690;9.130;2022-12-18T13:56:16;-0.70;99.90
11908;DHT22;6014;47.690;9.130;2022-12-18T13:59:04;-0.80;99.90
11908;DHT22;6014;47.690;9.130;2022-12-18T14:01:34;-0.90;99.90
11908;DHT22;6014;47.690;9.130;2022-12-18T14:04:11;-0.80;99.90
11908;DHT22;6014;47.690;9.130;2022-12-18T14:06:40;-0.80;99.90
11908;DHT22;6014;47.690;9.130;2022-12-18T14:09:14;-1.00;99.90
11908;DHT22;6014;47.690;9.130;2022-12-18T14:11:48;-1.00;99.90
11908;DHT22;6014;47.690;9.130;2022-12-18T14:14:19;-1.00;99.90
11908;DHT22;6014;47.690;9.130;2022-12-18T14:16:50;-0.90;99.90
11908;DHT22;6014;47.690;9.130;2022-12-18T14:19:19;-1.10;99.90
11908;DHT22;6014;47.690;9.130;2022-12-18T14:21:49;-1.20;99.90
11908;DHT22;6014;47.690;9.130;2022-12-18T14:24:20;-1.20;99.90
11908;DHT22;6014;47.690;9.130;2022-12-18T14:26:51;-1.20;99.90
11908;DHT22;6014;47.690;9.130;2022-12-18T14:29:27;-1.30;99.90
11908;DHT22;6014;47.690;9.130;2022-12-18T14:32:10;-1.30;99.90
11908;DHT22;6014;47.690;9.130;2022-12-18T14:34:44;-1.20;99.90
11908;DHT22;6014;47.690;9.130;2022-12-18T14:37:14;-1.20;99.90
11908;DHT22;6014;47.690;9.130;2022-12-18T14:39:53;-1.10;99.90
11908;DHT22;6014;47.690;9.130;2022-12-18T14:42:22;-1.20;99.90
11908;DHT22;6014;47.690;9.130;2022-12-18T14:48:16;-1.20;99.90
11908;DHT22;6014;47.690;9.130;2022-12-18T14:50:57;-1.20;99.90
11908;DHT22;6014;47.690;9.130;2022-12-18T14:53:44;-1.30;99.90
11908;DHT22;6014;47.690;9.130;2022-12-18T14:56:22;-1.30;99.90
11908;DHT22;6014;47.690;9.130;2022-12-18T14:58:54;-1.30;99.90
11908;DHT22;6014;47.690;9.130;2022-12-18T15:01:26;-1.40;99.90
11908;DHT22;6014;47.690;9.130;2022-12-18T15:03:58;-1.50;99.90
11908;DHT22;6014;47.690;9.130;2022-12-18T15:06:29;-1.50;99.90
11908;DHT22;6014;47.690;9.130;2022-12-18T15:08:58;-1.30;99.90
11908;DHT22;6014;47.690;9.130;2022-12-18T15:14:34;-1.40;99.90
11908;DHT22;6014;47.690;9.130;2022-12-18T15:17:06;-1.40;99.90
11908;DHT22;6014;47.690;9.130;2022-12-18T15:19:44;-1.40;99.90
11908;DHT22;6014;47.690;9.130;2022-12-18T15:22:20;-1.50;99.90
11908;DHT22;6014;47.690;9.130;2022-12-18T15:24:49;-1.50;99.90
11908;DHT22;6014;47.690;9.130;2022-12-18T15:27:27;-1.50;99.90
11908;DHT22;6014;47.690;9.130;2022-12-18T15:32:47;-1.60;99.90
11908;DHT22;6014;47.690;9.130;2022-12-18T15:35:20;-1.60;99.90
11908;DHT22;6014;47.690;9.130;2022-12-18T15:37:50;-1.60;99.90
11908;DHT22;6014;47.690;9.130;2022-12-18T15:40:21;-1.60;99.90
11908;DHT22;6014;47.690;9.130;2022-12-18T15:42:53;-1.60;99.90
11908;DHT22;6014;47.690;9.130;2022-12-18T15:45:39;-1.80;99.90
11908;DHT22;6014;47.690;9.130;2022-12-18T15:48:18;-1.80;99.90
11908;DHT22;6014;47.690;9.130;2022-12-18T15:50:50;-1.80;99.90
11908;DHT22;6014;47.690;9.130;2022-12-18T15:53:19;-1.80;99.90
11908;DHT22;6014;47.690;9.130;2022-12-18T15:55:47;-1.80;99.90
11908;DHT22;6014;47.690;9.130;2022-12-18T15:58:35;-1.70;99.90
11908;DHT22;6014;47.690;9.130;2022-12-18T16:01:03;-1.70;99.90
11908;DHT22;6014;47.690;9.130;2022-12-18T16:03:32;-1.70;99.90
11908;DHT22;6014;47.690;9.130;2022-12-18T16:06:01;-1.60;99.90
11908;DHT22;6014;47.690;9.130;2022-12-18T16:08:30;-1.70;99.90
11908;DHT22;6014;47.690;9.130;2022-12-18T16:10:59;-1.80;99.90
11908;DHT22;6014;47.690;9.130;2022-12-18T16:13:27;-1.70;99.90
11908;DHT22;6014;47.690;9.130;2022-12-18T16:15:55;-1.70;99.90
11908;DHT22;6014;47.690;9.130;2022-12-18T16:18:24;-1.70;99.90
11908;DHT22;6014;47.690;9.130;2022-12-18T16:20:52;-1.80;99.90
11908;DHT22;6014;47.690;9.130;2022-12-18T16:23:22;-1.70;99.90
11908;DHT22;6014;47.690;9.130;2022-12-18T16:25:51;-1.70;99.90
11908;DHT22;6014;47.690;9.130;2022-12-18T16:28:19;-1.70;99.90
11908;DHT22;6014;47.690;9.130;2022-12-18T16:30:47;-1.70;99.90
11908;DHT22;6014;47.690;9.130;2022-12-18T16:33:15;-1.70;99.90
11908;DHT22;6014;47.690;9.130;2022-12-18T16:35:51;-1.60;99.90